Time;durP1;ratioP1;P1;durP2;ratioP2;P2;SDS_P1;SDS_P2;PMS_P1;PMS_P2;Temp;Humidity;BMP_temperature;BMP_pressure;BME280_temperature;BME280_humidity;BME280_pressure;Samples;Min_cycle;Max_cycle;Signal;HPM_P1;HPM_P2
2021/01/29 00:02:24;;;;;;;1.60;0.70;;;11.00;99.90;;;;;;5050103;28;20460;-72
2021/01/29 00:04:50;;;;;;;1.63;0.80;;;10.90;99.90;;;;;;5050218;28;20448;-71
2021/01/29 00:07:18;;;;;;;1.67;0.67;;;10.90;99.90;;;;;;5049518;28;20880;-71
2021/01/29 00:09:45;;;;;;;2.30;0.90;;;10.80;99.90;;;;;;5049010;28;20466;-71
2021/01/29 00:12:11;;;;;;;2.33;1.00;;;10.80;99.90;;;;;;5047813;28;20531;-71
2021/01/29 00:14:38;;;;;;;2.30;1.00;;;10.70;99.90;;;;;;5049855;28;21118;-71
2021/01/29 00:17:04;;;;;;;2.03;0.90;;;10.70;99.90;;;;;;5049352;28;20448;-72
2021/01/29 00:19:31;;;;;;;1.90;1.10;;;10.70;99.90;;;;;;5049706;28;20687;-72
2021/01/29 00:21:57;;;;;;;2.30;1.00;;;10.60;99.90;;;;;;5049734;28;20468;-71
2021/01/29 00:24:25;;;;;;;1.40;0.70;;;10.60;99.90;;;;;;5049783;28;20432;-71
2021/01/29 00:26:51;;;;;;;2.47;0.93;;;10.60;99.90;;;;;;5049709;28;20502;-73
2021/01/29 00:29:18;;;;;;;2.00;0.90;;;10.60;99.90;;;;;;5047389;28;20437;-71
2021/01/29 00:31:44;;;;;;;3.03;1.00;;;10.60;99.90;;;;;;5049951;28;20868;-70
2021/01/29 00:34:11;;;;;;;1.90;0.90;;;10.50;99.90;;;;;;5048765;28;20948;-71
2021/01/29 00:36:37;;;;;;;1.70;0.97;;;10.50;99.90;;;;;;5050059;28;20443;-71
2021/01/29 00:39:05;;;;;;;1.80;0.93;;;10.50;99.90;;;;;;5049560;28;20443;-72
2021/01/29 00:41:32;;;;;;;2.90;1.33;;;10.40;99.90;;;;;;5049562;28;20485;-72
2021/01/29 00:43:59;;;;;;;2.50;1.30;;;10.30;99.90;;;;;;5049607;28;20455;-72
2021/01/29 00:46:25;;;;;;;3.13;1.10;;;10.10;99.90;;;;;;5050004;28;20543;-72
2021/01/29 00:48:52;;;;;;;1.83;0.90;;;10.10;99.90;;;;;;5049889;28;20908;-71
2021/01/29 00:51:18;;;;;;;3.23;1.33;;;10.10;99.90;;;;;;5049890;28;20439;-72
2021/01/29 00:53:45;;;;;;;2.03;0.90;;;10.20;99.90;;;;;;5043481;28;20440;-71
2021/01/29 00:56:12;;;;;;;2.20;0.90;;;10.20;99.90;;;;;;5050428;28;20921;-71
2021/01/29 00:58:39;;;;;;;3.77;0.97;;;10.10;99.90;;;;;;5053057;28;20447;-72
2021/01/29 01:01:06;;;;;;;3.00;1.63;;;10.10;99.90;;;;;;5051911;28;20455;-72
2021/01/29 01:03:33;;;;;;;2.63;1.40;;;10.10;99.90;;;;;;5053858;28;20808;-72
2021/01/29 01:05:59;;;;;;;2.07;1.27;;;10.10;99.90;;;;;;5053751;28;20482;-73
2021/01/29 01:08:26;;;;;;;1.70;0.90;;;10.10;99.90;;;;;;5054123;28;20486;-72
2021/01/29 01:10:53;;;;;;;1.63;0.87;;;10.10;99.90;;;;;;5053240;28;20510;-72
2021/01/29 01:13:19;;;;;;;3.03;0.97;;;10.00;99.90;;;;;;5053490;28;20468;-72
2021/01/29 01:15:47;;;;;;;3.67;1.00;;;10.00;99.90;;;;;;5053257;28;20916;-71
2021/01/29 01:18:13;;;;;;;2.33;0.90;;;10.00;99.90;;;;;;5053418;28;20509;-71
2021/01/29 01:20:40;;;;;;;13.20;1.47;;;10.10;99.90;;;;;;5052847;28;20515;-71
2021/01/29 01:23:06;;;;;;;1.53;0.80;;;10.10;99.90;;;;;;5053084;28;20456;-72
2021/01/29 01:25:32;;;;;;;1.90;1.00;;;10.00;99.90;;;;;;5052861;28;20471;-70
2021/01/29 01:27:59;;;;;;;2.50;1.30;;;10.00;99.90;;;;;;5052945;28;20440;-70
2021/01/29 01:30:31;;;;;;;2.03;0.80;;;10.00;99.90;;;;;;5052841;28;20938;-70
2021/01/29 01:32:59;;;;;;;1.80;0.97;;;9.90;99.90;;;;;;5052906;28;20456;-72
2021/01/29 01:35:26;;;;;;;1.50;0.83;;;9.80;99.90;;;;;;5053044;28;20816;-71
2021/01/29 01:37:53;;;;;;;1.60;0.80;;;9.80;99.90;;;;;;5052776;28;20432;-71
2021/01/29 01:40:24;;;;;;;1.73;1.20;;;9.70;99.90;;;;;;5052935;28;20456;-71
2021/01/29 01:42:51;;;;;;;2.27;0.90;;;9.70;99.90;;;;;;5056138;28;20514;-70
2021/01/29 01:45:53;;;;;;;5.50;1.40;;;9.50;99.90;;;;;;5063905;28;20483;-70
2021/01/29 01:48:29;;;;;;;1.60;0.90;;;9.40;99.90;;;;;;5064376;28;20462;-70
2021/01/29 01:50:57;;;;;;;2.13;0.97;;;9.40;99.90;;;;;;5054985;28;20436;-71
2021/01/29 01:53:29;;;;;;;1.80;1.17;;;9.40;99.90;;;;;;5052401;28;20489;-71
2021/01/29 01:56:04;;;;;;;2.23;0.90;;;9.50;99.90;;;;;;5052593;28;20432;-70
2021/01/29 01:58:32;;;;;;;1.50;0.87;;;9.50;99.90;;;;;;5052910;28;20436;-70
2021/01/29 02:00:59;;;;;;;2.00;0.87;;;9.50;99.90;;;;;;5052342;28;20799;-70
2021/01/29 02:03:29;;;;;;;1.37;0.70;;;9.50;99.90;;;;;;5052974;28;20452;-70
2021/01/29 02:05:57;;;;;;;1.50;1.00;;;9.40;99.90;;;;;;5052527;28;21005;-71
2021/01/29 02:08:26;;;;;;;2.27;1.03;;;9.40;99.90;;;;;;5051888;28;20447;-71
2021/01/29 02:10:52;;;;;;;2.60;1.30;;;9.40;99.90;;;;;;5051952;28;20439;-71
2021/01/29 02:13:19;;;;;;;2.23;0.90;;;9.30;99.90;;;;;;5052123;28;20460;-71
2021/01/29 02:15:51;;;;;;;2.20;0.87;;;9.30;99.90;;;;;;5052024;28;20444;-71
2021/01/29 02:18:31;;;;;;;2.20;1.10;;;9.30;99.90;;;;;;5052341;28;20440;-71
2021/01/29 02:22:04;;;;;;;3.40;1.30;;;9.20;99.90;;;;;;5051595;28;20458;-71
2021/01/29 02:25:18;;;;;;;1.80;1.00;;;9.10;99.90;;;;;;5052057;28;20843;-71
2021/01/29 02:27:49;;;;;;;2.30;1.33;;;9.10;99.90;;;;;;5051776;28;20459;-71
2021/01/29 02:30:33;;;;;;;3.47;1.20;;;9.20;99.90;;;;;;5051528;28;20428;-71
2021/01/29 02:33:51;;;;;;;3.83;2.00;;;9.10;99.90;;;;;;5050384;28;20533;-71
2021/01/29 02:37:08;;;;;;;3.30;1.50;;;9.10;99.90;;;;;;4969855;28;20494;-71
2021/01/29 02:40:08;;;;;;;3.00;1.37;;;9.10;99.90;;;;;;5051469;28;20474;-71
2021/01/29 02:42:51;;;;;;;2.10;1.30;;;9.10;99.90;;;;;;5051206;28;20456;-71
2021/01/29 02:45:24;;;;;;;2.70;1.53;;;9.10;99.90;;;;;;5051946;28;20475;-71
2021/01/29 02:47:59;;;;;;;1.83;1.07;;;9.10;99.90;;;;;;5051304;28;20447;-71
2021/01/29 02:50:39;;;;;;;1.87;1.17;;;9.10;99.90;;;;;;5050519;28;20924;-71
2021/01/29 02:53:19;;;;;;;2.00;1.40;;;9.20;99.90;;;;;;5043719;28;20566;-71
2021/01/29 02:55:54;;;;;;;2.30;1.00;;;9.20;99.90;;;;;;5051306;28;20450;-71
2021/01/29 02:58:31;;;;;;;3.00;1.20;;;9.20;99.90;;;;;;5051138;28;20435;-71
2021/01/29 03:01:03;;;;;;;2.00;1.20;;;9.30;99.90;;;;;;5051229;28;20534;-71
2021/01/29 03:03:36;;;;;;;2.07;1.07;;;9.30;99.90;;;;;;5051126;28;20452;-71
2021/01/29 03:06:11;;;;;;;2.10;1.30;;;9.20;99.90;;;;;;5051174;28;20476;-71
2021/01/29 03:08:43;;;;;;;1.83;1.10;;;9.20;99.90;;;;;;5051156;28;20436;-71
2021/01/29 03:11:17;;;;;;;2.00;0.70;;;9.30;99.90;;;;;;5050860;28;20436;-71
2021/01/29 03:13:48;;;;;;;1.80;1.00;;;9.20;99.90;;;;;;5050930;28;20459;-71
2021/01/29 03:16:18;;;;;;;1.73;1.10;;;9.20;99.90;;;;;;5045197;28;20437;-71
2021/01/29 03:18:53;;;;;;;1.73;0.90;;;9.20;99.90;;;;;;5051360;28;20432;-71
2021/01/29 03:21:23;;;;;;;1.40;0.77;;;9.20;99.90;;;;;;5050126;28;20752;-71
2021/01/29 03:23:55;;;;;;;1.57;0.80;;;9.20;99.90;;;;;;5050891;28;20436;-71
2021/01/29 03:26:28;;;;;;;1.50;0.80;;;9.20;99.90;;;;;;5050704;28;20491;-71
2021/01/29 03:28:57;;;;;;;2.07;0.90;;;9.20;99.90;;;;;;5050536;28;20718;-71
2021/01/29 03:31:25;;;;;;;1.30;0.60;;;9.30;99.90;;;;;;5050617;28;20440;-71
2021/01/29 03:34:01;;;;;;;2.10;0.93;;;9.30;99.90;;;;;;5050682;28;20436;-71
2021/01/29 03:36:33;;;;;;;1.63;0.83;;;9.30;99.90;;;;;;5050722;28;20440;-71
2021/01/29 03:39:05;;;;;;;2.53;0.80;;;9.30;99.90;;;;;;5050504;28;20813;-71
2021/01/29 03:41:37;;;;;;;2.53;0.70;;;9.30;99.90;;;;;;5050354;28;20522;-71
2021/01/29 03:44:20;;;;;;;1.40;0.70;;;9.30;99.90;;;;;;5050542;28;20439;-71
2021/01/29 03:46:53;;;;;;;1.63;0.77;;;9.30;99.90;;;;;;5050256;28;20484;-71
2021/01/29 03:49:30;;;;;;;1.60;0.80;;;9.30;99.90;;;;;;5050300;28;20439;-70
2021/01/29 03:52:10;;;;;;;1.70;0.90;;;9.30;99.90;;;;;;5050212;28;20454;-71
2021/01/29 03:54:44;;;;;;;1.43;0.80;;;9.30;99.90;;;;;;5050477;28;20439;-71
2021/01/29 03:57:24;;;;;;;2.17;0.90;;;9.30;99.90;;;;;;5050279;28;20478;-71
2021/01/29 04:00:10;;;;;;;1.80;0.67;;;9.40;99.90;;;;;;5049038;28;20439;-71
2021/01/29 04:02:44;;;;;;;1.60;0.70;;;9.30;99.90;;;;;;5050066;28;20949;-71
2021/01/29 04:05:15;;;;;;;1.60;1.00;;;9.30;99.90;;;;;;5050572;28;20787;-71
2021/01/29 04:07:51;;;;;;;1.90;0.80;;;9.30;99.90;;;;;;5050438;28;20516;-71
2021/01/29 04:10:20;;;;;;;1.80;0.90;;;9.40;99.90;;;;;;5050277;28;20676;-70
2021/01/29 04:12:52;;;;;;;3.70;0.70;;;9.40;99.90;;;;;;5049948;28;20937;-71
2021/01/29 04:15:27;;;;;;;1.90;0.80;;;9.30;99.90;;;;;;5050582;28;20917;-71
2021/01/29 04:18:00;;;;;;;2.50;0.73;;;9.30;99.90;;;;;;5044109;28;20486;-71
2021/01/29 04:20:32;;;;;;;1.50;0.90;;;9.30;99.90;;;;;;5050052;28;20479;-71
2021/01/29 04:23:04;;;;;;;1.30;0.60;;;9.30;99.90;;;;;;5050406;28;20460;-71
2021/01/29 04:25:35;;;;;;;1.63;0.90;;;9.40;99.90;;;;;;5050358;28;20483;-71
2021/01/29 04:28:05;;;;;;;1.50;0.73;;;9.40;99.90;;;;;;5049792;28;20436;-71
2021/01/29 04:30:34;;;;;;;1.70;0.93;;;9.40;99.90;;;;;;5050104;28;20589;-71
2021/01/29 04:33:07;;;;;;;1.50;0.80;;;9.40;99.90;;;;;;5056210;28;20471;-71
2021/01/29 04:35:36;;;;;;;1.47;0.63;;;9.40;99.90;;;;;;5056437;28;20847;-70
2021/01/29 04:38:09;;;;;;;2.40;0.70;;;9.30;99.90;;;;;;5056218;28;20493;-72
2021/01/29 04:40:44;;;;;;;1.30;0.67;;;9.30;99.90;;;;;;5056180;28;20451;-71
2021/01/29 04:43:39;;;;;;;3.00;0.90;;;9.30;99.90;;;;;;5056313;28;20919;-71
2021/01/29 04:46:28;;;;;;;1.80;0.87;;;9.30;99.90;;;;;;5056095;28;20820;-71
2021/01/29 04:49:03;;;;;;;1.50;0.83;;;9.20;99.90;;;;;;5054637;28;20562;-71
2021/01/29 04:52:02;;;;;;;1.50;0.83;;;9.20;99.90;;;;;;5056462;28;20439;-72
2021/01/29 04:54:56;;;;;;;1.97;0.90;;;9.20;99.90;;;;;;5038284;28;20458;-71
2021/01/29 04:57:48;;;;;;;1.80;0.80;;;9.20;99.90;;;;;;5056351;28;20466;-71
2021/01/29 05:00:56;;;;;;;2.50;0.87;;;9.20;99.90;;;;;;5041835;28;21006;-71
2021/01/29 05:03:54;;;;;;;1.77;0.70;;;9.20;99.90;;;;;;5056523;28;20890;-71
2021/01/29 05:07:11;;;;;;;2.77;1.00;;;9.20;99.90;;;;;;5056198;28;20483;-72
2021/01/29 05:10:01;;;;;;;1.83;0.70;;;9.20;99.90;;;;;;5056337;28;20777;-71
2021/01/29 05:12:46;;;;;;;2.70;0.90;;;9.20;99.90;;;;;;5056447;28;20486;-71
2021/01/29 05:15:53;;;;;;;3.00;0.90;;;9.20;99.90;;;;;;5056274;28;20434;-71
2021/01/29 05:18:50;;;;;;;1.40;0.63;;;9.30;99.90;;;;;;5052465;28;20440;-71
2021/01/29 05:21:50;;;;;;;1.67;0.67;;;9.30;99.90;;;;;;5011759;28;20456;-71
2021/01/29 05:24:48;;;;;;;1.50;0.70;;;9.30;99.90;;;;;;5052991;28;20955;-71
2021/01/29 05:27:40;;;;;;;2.30;0.80;;;9.30;99.90;;;;;;5055742;28;20478;-71
2021/01/29 05:30:25;;;;;;;1.60;0.70;;;9.30;99.90;;;;;;5054207;28;20451;-70
2021/01/29 05:33:24;;;;;;;2.63;0.93;;;9.30;99.90;;;;;;5055853;28;20509;-71
2021/01/29 05:36:03;;;;;;;2.30;0.90;;;9.30;99.90;;;;;;5053840;28;20896;-71
2021/01/29 05:38:54;;;;;;;1.97;1.77;;;9.20;99.90;;;;;;5055657;28;20424;-70
2021/01/29 05:42:03;;;;;;;2.73;0.90;;;9.10;99.90;;;;;;5055559;28;20798;-71
2021/01/29 05:44:55;;;;;;;1.40;0.70;;;9.10;99.90;;;;;;5031722;28;20456;-71
2021/01/29 05:47:56;;;;;;;2.80;0.93;;;9.10;99.90;;;;;;5052430;28;20480;-71
2021/01/29 05:51:04;;;;;;;2.27;1.27;;;9.10;99.90;;;;;;4977107;28;20947;-71
2021/01/29 05:54:00;;;;;;;1.60;0.93;;;9.00;99.90;;;;;;5004829;28;20475;-71
2021/01/29 05:56:37;;;;;;;1.80;1.03;;;9.00;99.90;;;;;;5052725;28;20436;-71
2021/01/29 05:59:24;;;;;;;1.60;0.70;;;8.90;99.90;;;;;;5052292;28;20424;-72
2021/01/29 06:02:12;;;;;;;3.57;0.87;;;8.90;99.90;;;;;;5052086;28;20456;-71
2021/01/29 06:04:56;;;;;;;1.40;0.50;;;8.90;99.90;;;;;;5052003;28;20489;-71
2021/01/29 06:07:54;;;;;;;1.43;0.63;;;8.90;99.90;;;;;;5052077;28;20486;-72
2021/01/29 06:10:44;;;;;;;2.03;0.70;;;8.90;99.90;;;;;;5030989;28;20458;-72
2021/01/29 06:13:38;;;;;;;1.20;0.50;;;9.00;99.90;;;;;;5046116;28;20784;-72
2021/01/29 06:16:36;;;;;;;1.30;0.57;;;9.00;99.90;;;;;;4996553;28;20452;-72
2021/01/29 06:19:36;;;;;;;1.67;0.70;;;9.00;99.90;;;;;;4991852;28;20448;-72
2021/01/29 06:22:36;;;;;;;1.97;0.70;;;9.00;99.90;;;;;;5038952;28;20499;-71
2021/01/29 06:25:20;;;;;;;4.70;1.50;;;9.00;99.90;;;;;;5044851;28;20929;-72
2021/01/29 06:28:13;;;;;;;1.77;0.70;;;9.00;99.90;;;;;;5047770;28;20447;-71
2021/01/29 06:31:00;;;;;;;3.97;0.80;;;9.00;99.90;;;;;;5013190;28;20517;-72
2021/01/29 06:33:51;;;;;;;2.37;0.70;;;9.00;99.90;;;;;;5050687;28;20455;-72
2021/01/29 06:36:32;;;;;;;2.50;0.67;;;9.00;99.90;;;;;;5042267;28;20503;-71
2021/01/29 06:39:15;;;;;;;1.33;0.60;;;9.00;99.90;;;;;;5059487;28;20478;-72
2021/01/29 06:42:21;;;;;;;1.37;0.53;;;9.10;99.90;;;;;;5059329;28;20483;-72
2021/01/29 06:45:15;;;;;;;2.97;0.57;;;9.10;99.90;;;;;;5021513;28;20945;-72
2021/01/29 06:48:15;;;;;;;1.70;0.67;;;9.20;99.90;;;;;;5041718;28;21059;-72
2021/01/29 06:51:14;;;;;;;1.23;0.50;;;9.20;99.90;;;;;;5046811;28;20798;-73
2021/01/29 06:54:16;;;;;;;1.30;0.53;;;9.30;99.90;;;;;;5041108;28;20443;-73
2021/01/29 06:57:08;;;;;;;1.70;0.63;;;9.30;99.90;;;;;;5026970;28;20437;-73
2021/01/29 07:00:22;;;;;;;2.00;0.70;;;9.30;99.90;;;;;;5040358;28;20444;-70
2021/01/29 07:03:15;;;;;;;1.40;0.70;;;9.30;99.90;;;;;;5007070;28;21040;-70
2021/01/29 07:05:54;;;;;;;1.77;0.53;;;9.40;99.90;;;;;;5049651;28;20476;-71
2021/01/29 07:08:32;;;;;;;1.40;0.60;;;9.40;99.90;;;;;;5049350;28;20917;-71
2021/01/29 07:11:28;;;;;;;3.63;1.43;;;9.70;99.90;;;;;;5049297;28;20436;-72
2021/01/29 07:14:07;;;;;;;1.43;0.70;;;9.80;99.90;;;;;;5049275;28;20448;-72
2021/01/29 07:16:55;;;;;;;1.90;0.70;;;9.70;99.90;;;;;;5055610;28;20807;-69
2021/01/29 07:20:15;;;;;;;1.20;0.60;;;9.70;99.90;;;;;;5038942;28;20460;-71
2021/01/29 07:23:01;;;;;;;1.40;0.50;;;9.70;99.90;;;;;;4982519;28;20468;-67
2021/01/29 07:25:34;;;;;;;1.37;0.50;;;9.70;99.90;;;;;;5039867;28;20462;-71
2021/01/29 07:28:21;;;;;;;1.20;0.50;;;9.80;99.90;;;;;;5041225;28;20445;-71
2021/01/29 07:31:18;;;;;;;1.30;0.50;;;9.80;99.90;;;;;;5029073;28;20805;-70
2021/01/29 07:33:53;;;;;;;1.50;0.60;;;9.90;99.90;;;;;;5033449;28;20444;-71
2021/01/29 07:36:44;;;;;;;1.40;0.80;;;10.00;99.90;;;;;;5046594;28;20677;-70
2021/01/29 07:39:44;;;;;;;1.80;0.90;;;10.00;99.90;;;;;;5031040;28;20501;-71
2021/01/29 07:42:25;;;;;;;1.10;0.50;;;10.00;99.90;;;;;;5048610;28;20501;-71
2021/01/29 07:45:04;;;;;;;1.30;0.50;;;10.20;99.90;;;;;;5048817;28;20455;-71
2021/01/29 07:47:59;;;;;;;1.50;0.50;;;10.20;99.90;;;;;;5048485;28;20505;-72
2021/01/29 07:50:30;;;;;;;1.30;0.50;;;10.20;99.90;;;;;;5048244;28;20494;-72
2021/01/29 07:53:03;;;;;;;1.40;0.70;;;10.20;99.90;;;;;;5048407;28;20830;-72
2021/01/29 07:55:52;;;;;;;2.40;0.60;;;10.20;99.90;;;;;;5049315;28;20432;-70
2021/01/29 07:58:26;;;;;;;1.20;0.50;;;10.30;99.90;;;;;;5050184;28;20440;-69
2021/01/29 08:01:04;;;;;;;1.43;0.60;;;10.40;99.90;;;;;;5040474;28;20455;-71
2021/01/29 08:03:49;;;;;;;3.53;0.60;;;10.50;99.90;;;;;;5030246;28;20876;-75
2021/01/29 08:06:20;;;;;;;1.20;0.50;;;10.50;99.90;;;;;;5029907;28;20453;-72
2021/01/29 08:08:53;;;;;;;1.60;0.70;;;10.60;99.90;;;;;;5030254;28;20487;-74
2021/01/29 08:11:21;;;;;;;1.30;0.50;;;10.60;99.90;;;;;;5029855;28;20941;-74
2021/01/29 08:14:15;;;;;;;1.20;0.50;;;10.50;99.90;;;;;;5030617;28;20451;-75
2021/01/29 08:17:08;;;;;;;1.30;0.60;;;10.60;99.90;;;;;;5038619;28;21082;-73
2021/01/29 08:19:48;;;;;;;1.13;0.47;;;10.60;99.90;;;;;;5049080;28;20784;-73
2021/01/29 08:22:37;;;;;;;1.87;0.60;;;10.60;99.90;;;;;;5050020;28;20490;-75
2021/01/29 08:25:13;;;;;;;1.57;0.60;;;10.70;99.90;;;;;;5036392;28;20959;-72
2021/01/29 08:28:10;;;;;;;1.80;0.70;;;10.80;99.90;;;;;;5049565;28;20471;-71
2021/01/29 08:30:52;;;;;;;1.50;0.60;;;10.80;99.90;;;;;;5049112;28;20435;-74
2021/01/29 08:34:10;;;;;;;2.23;0.70;;;10.90;99.90;;;;;;5037257;28;20465;-73
2021/01/29 08:37:06;;;;;;;1.60;0.60;;;10.90;99.90;;;;;;4947493;28;20467;-73
2021/01/29 08:39:38;;;;;;;1.10;0.40;;;10.90;99.90;;;;;;4947438;29;20503;-70
2021/01/29 08:42:14;;;;;;;4.70;0.77;;;10.90;99.90;;;;;;5002027;28;20464;-73
2021/01/29 08:45:08;;;;;;;1.30;0.50;;;10.90;99.90;;;;;;5028407;28;20439;-72
2021/01/29 08:47:54;;;;;;;1.40;0.57;;;11.00;99.90;;;;;;5028468;28;20472;-71
2021/01/29 08:50:36;;;;;;;1.40;0.60;;;10.90;99.90;;;;;;5034827;28;20452;-72
2021/01/29 08:53:39;;;;;;;1.50;0.50;;;10.90;99.90;;;;;;5028067;28;20457;-76
2021/01/29 08:56:12;;;;;;;2.63;0.60;;;10.60;99.90;;;;;;5028073;28;20456;-73
2021/01/29 08:58:47;;;;;;;1.30;0.60;;;10.50;99.90;;;;;;5028225;28;20916;-73
2021/01/29 09:01:21;;;;;;;1.60;0.73;;;10.40;99.90;;;;;;5028367;28;20436;-75
2021/01/29 09:03:57;;;;;;;1.40;0.70;;;10.50;99.90;;;;;;5029102;28;20516;-73
2021/01/29 09:06:27;;;;;;;4.23;1.50;;;10.50;99.90;;;;;;5028242;28;20502;-72
2021/01/29 09:09:04;;;;;;;1.77;0.77;;;10.50;99.90;;;;;;5029037;28;20433;-75
2021/01/29 09:11:36;;;;;;;2.40;0.70;;;10.70;99.90;;;;;;5031337;28;20455;-75
2021/01/29 09:14:06;;;;;;;2.67;1.00;;;10.90;99.90;;;;;;5027901;28;20479;-69
2021/01/29 09:16:36;;;;;;;1.83;0.80;;;11.20;99.90;;;;;;5027797;28;20823;-72
2021/01/29 09:19:07;;;;;;;1.87;0.60;;;11.30;99.90;;;;;;5030709;28;20528;-72
2021/01/29 09:21:42;;;;;;;2.40;0.70;;;11.50;99.90;;;;;;5031927;28;20484;-72
2021/01/29 09:24:18;;;;;;;1.70;0.93;;;11.60;99.90;;;;;;5031502;28;20448;-72
2021/01/29 09:27:13;;;;;;;2.80;0.80;;;11.60;99.90;;;;;;5032556;28;21016;-74
2021/01/29 09:29:45;;;;;;;5.73;1.20;;;11.70;99.90;;;;;;5035559;28;20528;-75
2021/01/29 09:32:16;;;;;;;2.80;0.97;;;11.90;99.90;;;;;;5037188;28;20846;-73
2021/01/29 09:34:48;;;;;;;3.10;1.00;;;11.90;99.90;;;;;;5042965;28;20429;-72
2021/01/29 09:37:19;;;;;;;3.80;0.70;;;11.70;99.90;;;;;;5034346;28;20952;-72
2021/01/29 09:39:57;;;;;;;5.23;0.80;;;11.60;99.90;;;;;;5038951;28;20937;-73
2021/01/29 09:42:28;;;;;;;3.33;1.00;;;11.60;99.90;;;;;;5052064;28;20468;-73
2021/01/29 09:44:59;;;;;;;2.60;0.97;;;11.60;99.90;;;;;;5050554;28;20447;-72
2021/01/29 09:47:28;;;;;;;2.43;1.10;;;11.70;99.90;;;;;;5049302;28;20949;-71
2021/01/29 09:50:02;;;;;;;3.13;0.80;;;11.70;99.90;;;;;;5050721;28;20443;-71
2021/01/29 09:52:50;;;;;;;2.87;0.90;;;11.80;99.90;;;;;;5051725;28;20456;-74
2021/01/29 09:55:24;;;;;;;4.20;1.33;;;11.90;99.90;;;;;;5051168;28;20479;-73
2021/01/29 09:58:00;;;;;;;3.63;1.03;;;11.80;99.90;;;;;;5048975;28;20444;-74
2021/01/29 10:00:31;;;;;;;3.00;1.23;;;11.70;99.90;;;;;;5051232;28;20439;-75
2021/01/29 10:03:07;;;;;;;3.27;1.37;;;11.80;99.90;;;;;;5051481;28;20553;-76
2021/01/29 10:05:37;;;;;;;5.43;1.23;;;11.90;99.90;;;;;;5053316;28;20432;-73
2021/01/29 10:08:11;;;;;;;3.70;0.90;;;12.00;99.90;;;;;;5052434;28;20444;-73
2021/01/29 10:10:50;;;;;;;4.27;1.10;;;12.20;99.90;;;;;;5051655;28;20448;-72
2021/01/29 10:13:40;;;;;;;4.20;1.57;;;12.40;99.90;;;;;;5050708;28;20559;-73
2021/01/29 10:16:34;;;;;;;2.13;0.80;;;12.30;99.90;;;;;;5051381;28;20784;-71
2021/01/29 10:19:20;;;;;;;8.80;2.27;;;12.30;99.90;;;;;;5048565;28;20463;-75
2021/01/29 10:22:21;;;;;;;2.67;1.40;;;12.40;99.90;;;;;;5037835;28;20468;-72
2021/01/29 10:24:55;;;;;;;4.93;1.50;;;12.40;99.90;;;;;;5052063;28;20444;-72
2021/01/29 10:27:27;;;;;;;3.90;1.30;;;12.40;99.90;;;;;;5051027;28;20494;-73
2021/01/29 10:30:02;;;;;;;3.73;1.33;;;12.60;99.90;;;;;;5050192;28;20429;-74
2021/01/29 10:32:33;;;;;;;3.60;1.30;;;12.50;99.90;;;;;;5051555;28;20521;-70
2021/01/29 10:35:09;;;;;;;7.47;2.40;;;12.40;99.90;;;;;;5051089;28;20437;-71
2021/01/29 10:37:41;;;;;;;4.97;1.57;;;12.60;99.90;;;;;;5051730;28;20431;-71
2021/01/29 10:40:23;;;;;;;5.17;1.23;;;12.80;99.90;;;;;;5051596;28;20990;-71
2021/01/29 10:43:00;;;;;;;3.73;1.20;;;12.70;99.90;;;;;;5050969;28;20480;-72
2021/01/29 10:45:46;;;;;;;3.30;0.97;;;12.70;99.90;;;;;;5050432;28;20842;-72
2021/01/29 10:48:29;;;;;;;5.97;2.07;;;12.60;99.90;;;;;;5051788;28;20467;-74
2021/01/29 10:51:01;;;;;;;3.93;1.70;;;12.80;99.90;;;;;;5051322;28;20455;-73
2021/01/29 10:53:29;;;;;;;3.80;1.53;;;13.00;99.90;;;;;;5053324;28;20514;-73
2021/01/29 10:56:00;;;;;;;4.80;1.50;;;13.00;99.90;;;;;;5051387;28;20424;-74
2021/01/29 10:58:36;;;;;;;7.00;2.30;;;13.00;99.90;;;;;;5051886;28;20885;-76
2021/01/29 11:01:06;;;;;;;2.90;1.10;;;12.80;99.90;;;;;;5053777;28;20428;-71
2021/01/29 11:03:51;;;;;;;2.80;0.90;;;12.50;99.90;;;;;;5052425;28;20654;-73
2021/01/29 11:06:24;;;;;;;5.00;1.00;;;12.50;99.90;;;;;;5055936;28;20476;-70
2021/01/29 11:08:53;;;;;;;3.00;1.30;;;12.40;99.90;;;;;;5053625;28;20456;-75
2021/01/29 11:11:26;;;;;;;1.97;1.13;;;12.60;99.90;;;;;;5051143;28;20428;-73
2021/01/29 11:14:00;;;;;;;3.10;1.30;;;12.70;99.90;;;;;;5049652;28;20433;-70
2021/01/29 11:16:43;;;;;;;4.07;1.20;;;12.80;99.90;;;;;;5042710;28;20547;-70
2021/01/29 11:19:15;;;;;;;9.53;2.20;;;13.10;99.90;;;;;;5032120;28;20468;-69
2021/01/29 11:21:51;;;;;;;3.73;1.13;;;12.70;99.90;;;;;;5030378;28;20526;-73
2021/01/29 11:24:28;;;;;;;7.37;1.73;;;12.50;99.90;;;;;;5036969;28;20447;-74
2021/01/29 11:27:02;;;;;;;3.63;1.43;;;12.40;99.90;;;;;;5049643;28;20494;-73
2021/01/29 11:29:40;;;;;;;4.90;1.20;;;12.40;99.90;;;;;;5050189;28;20529;-71
2021/01/29 11:32:26;;;;;;;4.03;1.73;;;12.40;99.90;;;;;;5051086;28;20448;-73
2021/01/29 11:35:14;;;;;;;4.83;1.27;;;12.40;99.90;;;;;;5053950;28;20409;-70
2021/01/29 11:38:26;;;;;;;4.43;1.40;;;12.50;99.90;;;;;;5068756;28;20425;-71
2021/01/29 11:41:12;;;;;;;3.90;1.53;;;12.30;99.90;;;;;;5048876;28;20494;-71
2021/01/29 11:43:45;;;;;;;3.10;0.80;;;12.40;99.90;;;;;;5047288;28;20471;-73
2021/01/29 11:46:25;;;;;;;3.50;1.23;;;12.30;99.90;;;;;;5049506;28;20467;-72
2021/01/29 11:48:59;;;;;;;3.40;1.63;;;12.20;99.90;;;;;;5049087;28;20436;-75
2021/01/29 11:51:33;;;;;;;3.70;1.20;;;12.20;99.90;;;;;;5048887;28;20480;-75
2021/01/29 11:54:06;;;;;;;2.53;1.03;;;12.00;99.90;;;;;;5049971;28;20457;-75
2021/01/29 11:56:39;;;;;;;3.60;1.10;;;12.00;99.90;;;;;;5049442;28;20424;-73
2021/01/29 11:59:20;;;;;;;3.00;1.10;;;12.10;99.90;;;;;;5049957;28;20715;-74
2021/01/29 12:01:52;;;;;;;2.77;1.00;;;12.00;99.90;;;;;;5049818;28;20463;-72
2021/01/29 12:04:28;;;;;;;3.33;1.10;;;11.80;99.90;;;;;;5049991;28;20429;-73
2021/01/29 12:07:02;;;;;;;3.63;1.20;;;11.70;99.90;;;;;;5050862;28;20475;-72
2021/01/29 12:09:40;;;;;;;2.73;1.20;;;11.80;99.90;;;;;;5038449;28;20432;-74
2021/01/29 12:12:15;;;;;;;3.33;1.10;;;11.90;99.90;;;;;;5030696;28;20448;-75
2021/01/29 12:14:58;;;;;;;7.53;1.70;;;12.00;99.90;;;;;;5031693;28;20515;-73
2021/01/29 12:17:27;;;;;;;4.13;1.27;;;12.00;99.90;;;;;;5043063;28;20471;-75
2021/01/29 12:20:00;;;;;;;3.93;1.27;;;12.00;99.90;;;;;;5043838;28;20474;-73
2021/01/29 12:22:31;;;;;;;3.60;1.13;;;12.10;99.90;;;;;;5048319;28;20456;-73
2021/01/29 12:25:37;;;;;;;3.10;1.50;;;11.90;99.90;;;;;;5062667;28;20833;-73
2021/01/29 12:28:13;;;;;;;4.50;1.47;;;11.80;99.90;;;;;;5064463;28;20491;-73
2021/01/29 12:30:47;;;;;;;6.30;1.70;;;11.70;99.90;;;;;;5071472;28;20456;-75
2021/01/29 12:33:18;;;;;;;3.77;1.87;;;11.70;99.90;;;;;;5070435;28;20893;-72
2021/01/29 12:35:50;;;;;;;4.83;1.40;;;11.80;99.90;;;;;;5071517;28;20970;-73
2021/01/29 12:38:25;;;;;;;2.43;1.00;;;11.80;99.90;;;;;;5064685;28;20440;-72
2021/01/29 12:41:02;;;;;;;8.47;2.70;;;11.80;99.90;;;;;;5069802;28;20467;-72
2021/01/29 12:43:37;;;;;;;4.67;1.10;;;11.90;99.90;;;;;;5061940;28;20451;-72
2021/01/29 12:46:07;;;;;;;5.20;1.23;;;11.80;99.90;;;;;;5053523;28;20796;-73
2021/01/29 12:48:51;;;;;;;3.50;1.20;;;11.70;99.90;;;;;;5067515;28;20432;-73
2021/01/29 12:51:22;;;;;;;2.03;0.97;;;11.70;99.90;;;;;;5042371;28;20447;-72
2021/01/29 12:54:03;;;;;;;7.00;2.33;;;11.70;99.90;;;;;;5052597;28;20441;-72
2021/01/29 12:57:08;;;;;;;5.37;1.40;;;11.60;99.90;;;;;;5048352;28;20526;-72
2021/01/29 12:59:42;;;;;;;7.17;1.63;;;11.50;99.90;;;;;;5030043;28;20444;-72
2021/01/29 13:02:55;;;;;;;5.20;1.40;;;11.50;99.90;;;;;;5048777;28;20466;-71
2021/01/29 13:05:32;;;;;;;3.40;1.50;;;11.50;99.90;;;;;;5050554;28;20510;-71
2021/01/29 13:08:34;;;;;;;4.77;1.40;;;11.60;99.90;;;;;;5047844;28;20518;-73
2021/01/29 13:11:08;;;;;;;3.33;0.90;;;11.60;99.90;;;;;;5053111;28;20478;-72
2021/01/29 13:13:41;;;;;;;3.20;1.27;;;11.60;99.90;;;;;;5047750;28;20471;-74
2021/01/29 13:16:17;;;;;;;4.30;1.20;;;11.60;99.90;;;;;;5050240;28;20471;-73
2021/01/29 13:18:54;;;;;;;4.60;1.20;;;11.60;99.90;;;;;;5045889;28;20936;-69
2021/01/29 13:21:27;;;;;;;3.70;1.10;;;11.50;99.90;;;;;;5046373;28;20514;-70
2021/01/29 13:23:55;;;;;;;5.13;1.10;;;11.50;99.90;;;;;;5053069;28;20476;-72
2021/01/29 13:26:30;;;;;;;3.00;1.13;;;11.50;99.90;;;;;;5053664;28;20482;-71
2021/01/29 13:29:01;;;;;;;3.40;0.90;;;11.60;99.90;;;;;;5053717;28;20447;-72
2021/01/29 13:31:33;;;;;;;2.57;0.93;;;11.60;99.90;;;;;;5053265;28;20448;-71
2021/01/29 13:34:03;;;;;;;2.40;0.63;;;11.50;99.90;;;;;;5053426;28;20880;-72
2021/01/29 13:36:32;;;;;;;3.20;1.13;;;11.40;99.90;;;;;;5052599;28;20455;-73
2021/01/29 13:39:10;;;;;;;2.50;1.23;;;11.40;99.90;;;;;;5051731;28;20465;-71
2021/01/29 13:41:45;;;;;;;3.00;1.10;;;11.50;99.90;;;;;;5052694;28;20459;-71
2021/01/29 13:44:40;;;;;;;3.27;0.80;;;11.70;99.90;;;;;;5068569;28;20439;-71
2021/01/29 13:47:17;;;;;;;5.00;1.10;;;11.70;99.90;;;;;;5053499;28;20507;-71
2021/01/29 13:49:44;;;;;;;1.90;0.60;;;11.70;99.90;;;;;;5070617;28;20447;-72
2021/01/29 13:52:23;;;;;;;2.47;1.00;;;11.80;99.90;;;;;;5067586;28;20512;-73
2021/01/29 13:54:50;;;;;;;2.00;0.77;;;11.90;99.90;;;;;;5071604;28;20458;-71